Weather at Kralovice Airstrip

Public forecast

Using degrees Celsius for public forecast. Weather courtesy of forecast.io.

Closest aviation weather report (METAR) to Kralovice Airstrip

Closest report is Plzeň-Líně Airport, 21.1 nm (39.0 km) SSW. Retrieved 2021/07/31 05:00 UTC (30 minutes ago):

LKLN 310500Z AUTO 22004KT 200V270 9999 FEW054 17/17 Q1011

Closest aviation forecast (TAF) to Kralovice Airstrip

Closest forecast is Karlovy Vary International Airport, 27.0 nm (50.0 km) WNW. Retrieved 2021-07-31 00:15 UTC (5 hours ago):

TAF LKKV 302300Z 3100/0106 25008KT CAVOK TEMPO 3100/3105 8000 SHRA BKN035 PROB30 TEMPO 3100/3103 -TSRA SCT025CB TEMPO 0103/0105 7000 SHRA BKN035 PROB30 TEMPO 0103/0106 4000 TSRA SCT025CB